Dies, Texas
Current Conditions -  °F | °C
As of 10:35 AM on Monday 26 Jan 2015 (Local Time) from KJAS Reporting Station
Clear Clear  
Wind Chill: 54°   Ceiling: Unl
Heat Index: 54°   Visibility: 10mi
Dew Point: 35°   Wind: 9mph
Humidity: 49%   Direction: 330°NNW
Pressure: 30.24"   Gusts: NA
Location:  30.7643°N, 94.4448°W
Report Text: KJAS 261635Z AUTO 33008KT 10SM CLR 12/02 A3024 RMK AO2 T01220016
Loading
Personal Weather Stations






























Interactive Weather Map New forecast layout! Learn more

10-Day Weather Forecast

Advertisements
Track Severe Weather on mobile